sensor_id;sensor_type;location;lat;lon;timestamp;pressure;altitude;pressure_sealevel;temperature;humidity
75166;BME280;63747;48.042;10.088;2023-08-21T00:02:16;95648.09;;;20.60;51.10
75166;BME280;63747;48.042;10.088;2023-08-21T00:05:17;95642.72;;;20.60;51.13
75166;BME280;63747;48.042;10.088;2023-08-21T00:08:17;95641.84;;;20.59;50.83
75166;BME280;63747;48.042;10.088;2023-08-21T00:11:18;95641.50;;;20.56;50.90
75166;BME280;63747;48.042;10.088;2023-08-21T00:14:18;95634.53;;;20.48;51.45
75166;BME280;63747;48.042;10.088;2023-08-21T00:17:19;95638.13;;;20.42;51.37
75166;BME280;63747;48.042;10.088;2023-08-21T00:20:19;95635.72;;;20.34;51.34
75166;BME280;63747;48.042;10.088;2023-08-21T00:23:20;95641.38;;;20.26;51.63
75166;BME280;63747;48.042;10.088;2023-08-21T00:26:21;95638.53;;;20.21;51.85
75166;BME280;63747;48.042;10.088;2023-08-21T00:29:21;95637.72;;;20.20;51.90
75166;BME280;63747;48.042;10.088;2023-08-21T00:32:22;95627.84;;;20.14;51.88
75166;BME280;63747;48.042;10.088;2023-08-21T00:35:22;95632.47;;;20.07;51.65
75166;BME280;63747;48.042;10.088;2023-08-21T00:38:23;95638.28;;;20.04;51.83
75166;BME280;63747;48.042;10.088;2023-08-21T00:41:24;95634.53;;;20.05;51.71
75166;BME280;63747;48.042;10.088;2023-08-21T00:44:24;95632.75;;;19.99;51.83
75166;BME280;63747;48.042;10.088;2023-08-21T00:47:25;95634.59;;;19.80;52.66
75166;BME280;63747;48.042;10.088;2023-08-21T00:50:25;95637.75;;;19.70;52.73
75166;BME280;63747;48.042;10.088;2023-08-21T00:53:26;95637.44;;;19.60;53.37
75166;BME280;63747;48.042;10.088;2023-08-21T00:56:26;95633.72;;;19.54;53.59
75166;BME280;63747;48.042;10.088;2023-08-21T00:59:27;95635.00;;;19.52;53.26
75166;BME280;63747;48.042;10.088;2023-08-21T01:02:27;95634.09;;;19.58;53.25
75166;BME280;63747;48.042;10.088;2023-08-21T01:05:28;95638.28;;;19.61;53.09
75166;BME280;63747;48.042;10.088;2023-08-21T01:17:43;95636.19;;;19.56;52.70
75166;BME280;63747;48.042;10.088;2023-08-21T01:20:44;95640.97;;;19.54;53.14
75166;BME280;63747;48.042;10.088;2023-08-21T01:23:46;95649.47;;;19.51;53.28
75166;BME280;63747;48.042;10.088;2023-08-21T01:26:46;95646.41;;;19.47;52.96
75166;BME280;63747;48.042;10.088;2023-08-21T01:29:47;95641.66;;;19.43;53.00
75166;BME280;63747;48.042;10.088;2023-08-21T01:35:48;95649.38;;;19.39;53.32
75166;BME280;63747;48.042;10.088;2023-08-21T01:38:50;95653.28;;;19.37;53.17
75166;BME280;63747;48.042;10.088;2023-08-21T01:41:50;95648.38;;;19.34;53.17
75166;BME280;63747;48.042;10.088;2023-08-21T01:44:51;95651.88;;;19.34;53.12
75166;BME280;63747;48.042;10.088;2023-08-21T01:47:51;95651.69;;;19.29;53.57
75166;BME280;63747;48.042;10.088;2023-08-21T01:50:52;95654.91;;;19.13;53.78
75166;BME280;63747;48.042;10.088;2023-08-21T01:53:52;95655.34;;;19.03;54.26
75166;BME280;63747;48.042;10.088;2023-08-21T01:56:53;95660.91;;;19.08;54.04
75166;BME280;63747;48.042;10.088;2023-08-21T01:59:53;95661.09;;;19.13;54.15
75166;BME280;63747;48.042;10.088;2023-08-21T02:02:54;95653.25;;;19.12;54.00
75166;BME280;63747;48.042;10.088;2023-08-21T02:05:55;95657.19;;;19.09;54.24
75166;BME280;63747;48.042;10.088;2023-08-21T02:08:57;95654.94;;;19.06;53.88
75166;BME280;63747;48.042;10.088;2023-08-21T02:11:58;95658.88;;;19.03;53.97
75166;BME280;63747;48.042;10.088;2023-08-21T02:14:58;95662.81;;;19.01;53.86
75166;BME280;63747;48.042;10.088;2023-08-21T02:17:59;95662.03;;;18.94;54.07
75166;BME280;63747;48.042;10.088;2023-08-21T02:21:00;95661.84;;;18.89;54.19
75166;BME280;63747;48.042;10.088;2023-08-21T02:24:01;95658.56;;;18.87;54.18
75166;BME280;63747;48.042;10.088;2023-08-21T02:27:02;95657.13;;;18.84;54.58
75166;BME280;63747;48.042;10.088;2023-08-21T02:30:03;95662.09;;;18.81;54.25
75166;BME280;63747;48.042;10.088;2023-08-21T02:33:04;95656.94;;;18.79;54.20
75166;BME280;63747;48.042;10.088;2023-08-21T02:36:04;95659.63;;;18.79;54.46
75166;BME280;63747;48.042;10.088;2023-08-21T02:39:07;95660.00;;;18.76;54.31
75166;BME280;63747;48.042;10.088;2023-08-21T02:42:07;95657.56;;;18.68;54.81
75166;BME280;63747;48.042;10.088;2023-08-21T02:45:08;95652.44;;;18.60;54.74
75166;BME280;63747;48.042;10.088;2023-08-21T02:48:09;95649.97;;;18.58;54.70
75166;BME280;63747;48.042;10.088;2023-08-21T02:51:09;95655.34;;;18.58;54.68
75166;BME280;63747;48.042;10.088;2023-08-21T02:54:10;95652.88;;;18.57;54.53
75166;BME280;63747;48.042;10.088;2023-08-21T02:57:11;95647.31;;;18.52;54.97
75166;BME280;63747;48.042;10.088;2023-08-21T03:00:11;95650.41;;;18.48;54.58
75166;BME280;63747;48.042;10.088;2023-08-21T03:03:12;95655.38;;;18.45;55.02
75166;BME280;63747;48.042;10.088;2023-08-21T03:06:12;95643.41;;;18.41;54.80
75166;BME280;63747;48.042;10.088;2023-08-21T03:09:13;95642.81;;;18.39;55.25
75166;BME280;63747;48.042;10.088;2023-08-21T03:12:13;95654.59;;;18.38;55.23
75166;BME280;63747;48.042;10.088;2023-08-21T03:15:14;95654.59;;;18.38;54.88
75166;BME280;63747;48.042;10.088;2023-08-21T03:18:15;95655.81;;;18.35;55.18
75166;BME280;63747;48.042;10.088;2023-08-21T03:21:15;95661.19;;;18.35;55.03
75166;BME280;63747;48.042;10.088;2023-08-21T03:24:16;95666.16;;;18.32;55.15
75166;BME280;63747;48.042;10.088;2023-08-21T03:27:16;95662.47;;;18.26;55.51
75166;BME280;63747;48.042;10.088;2023-08-21T03:30:17;95667.22;;;18.24;55.60
75166;BME280;63747;48.042;10.088;2023-08-21T03:33:17;95669.09;;;18.24;55.55
75166;BME280;63747;48.042;10.088;2023-08-21T03:36:18;95662.03;;;18.22;55.68
75166;BME280;63747;48.042;10.088;2023-08-21T03:39:19;95663.72;;;18.24;55.49
75166;BME280;63747;48.042;10.088;2023-08-21T03:42:19;95665.75;;;18.21;55.48
75166;BME280;63747;48.042;10.088;2023-08-21T03:45:20;95672.16;;;18.20;55.68
75166;BME280;63747;48.042;10.088;2023-08-21T03:48:20;95664.75;;;18.16;55.73
75166;BME280;63747;48.042;10.088;2023-08-21T03:51:22;95668.47;;;18.15;55.74
75166;BME280;63747;48.042;10.088;2023-08-21T03:54:23;95668.06;;;18.11;55.99
75166;BME280;63747;48.042;10.088;2023-08-21T03:57:23;95676.34;;;18.10;56.18
75166;BME280;63747;48.042;10.088;2023-08-21T04:00:24;95677.34;;;18.09;56.27
75166;BME280;63747;48.042;10.088;2023-08-21T04:03:24;95680.66;;;18.11;55.97
75166;BME280;63747;48.042;10.088;2023-08-21T04:06:25;95682.53;;;18.10;56.17
75166;BME280;63747;48.042;10.088;2023-08-21T04:09:26;95674.66;;;18.09;56.00
75166;BME280;63747;48.042;10.088;2023-08-21T04:12:26;95670.53;;;18.06;56.27
75166;BME280;63747;48.042;10.088;2023-08-21T04:15:27;95678.81;;;18.05;56.16
75166;BME280;63747;48.042;10.088;2023-08-21T04:18:27;95691.41;;;18.04;55.86
75166;BME280;63747;48.042;10.088;2023-08-21T04:21:28;95685.81;;;17.99;56.06
75166;BME280;63747;48.042;10.088;2023-08-21T04:24:28;95691.81;;;17.94;56.21
75166;BME280;63747;48.042;10.088;2023-08-21T04:27:29;95691.38;;;17.91;56.56
75166;BME280;63747;48.042;10.088;2023-08-21T04:30:29;95699.63;;;17.89;56.14
75166;BME280;63747;48.042;10.088;2023-08-21T04:33:30;95697.78;;;17.90;56.23
75166;BME280;63747;48.042;10.088;2023-08-21T04:36:31;95700.84;;;17.87;56.28
75166;BME280;63747;48.042;10.088;2023-08-21T04:39:31;95697.56;;;17.85;56.73
75166;BME280;63747;48.042;10.088;2023-08-21T04:42:32;95693.44;;;17.82;56.85
75166;BME280;63747;48.042;10.088;2023-08-21T04:45:32;95695.50;;;17.87;56.47
75166;BME280;63747;48.042;10.088;2023-08-21T04:48:33;95697.97;;;17.88;56.53
75166;BME280;63747;48.042;10.088;2023-08-21T04:51:33;95694.66;;;17.93;56.57
75166;BME280;63747;48.042;10.088;2023-08-21T04:54:34;95692.22;;;17.98;56.44
75166;BME280;63747;48.042;10.088;2023-08-21T04:57:34;95700.50;;;17.97;56.46
75166;BME280;63747;48.042;10.088;2023-08-21T05:00:35;95703.56;;;18.00;56.41
75166;BME280;63747;48.042;10.088;2023-08-21T05:03:36;95703.16;;;18.03;56.57
75166;BME280;63747;48.042;10.088;2023-08-21T05:06:36;95697.16;;;18.08;56.35
75166;BME280;63747;48.042;10.088;2023-08-21T05:09:37;95704.97;;;18.16;56.49
75166;BME280;63747;48.042;10.088;2023-08-21T05:12:37;95704.56;;;18.26;56.60
75166;BME280;63747;48.042;10.088;2023-08-21T05:15:38;95707.63;;;18.36;56.15
75166;BME280;63747;48.042;10.088;2023-08-21T05:18:38;95708.66;;;18.48;56.03
75166;BME280;63747;48.042;10.088;2023-08-21T05:21:39;95711.91;;;18.63;56.10
75166;BME280;63747;48.042;10.088;2023-08-21T05:24:39;95708.34;;;18.76;55.71
75166;BME280;63747;48.042;10.088;2023-08-21T05:27:40;95705.25;;;18.86;55.56
75166;BME280;63747;48.042;10.088;2023-08-21T05:30:40;95704.56;;;19.03;55.34
75166;BME280;63747;48.042;10.088;2023-08-21T05:33:41;95707.59;;;19.20;55.42
75166;BME280;63747;48.042;10.088;2023-08-21T05:36:41;95706.66;;;19.40;55.10
75166;BME280;63747;48.042;10.088;2023-08-21T05:39:42;95712.53;;;19.55;55.00
75166;BME280;63747;48.042;10.088;2023-08-21T05:42:42;95712.88;;;19.72;54.97
75166;BME280;63747;48.042;10.088;2023-08-21T05:45:43;95714.19;;;19.88;54.91
75166;BME280;63747;48.042;10.088;2023-08-21T05:48:43;95718.44;;;20.02;54.71
75166;BME280;63747;48.042;10.088;2023-08-21T05:51:44;95722.06;;;20.14;54.58
75166;BME280;63747;48.042;10.088;2023-08-21T05:54:44;95717.38;;;20.28;54.27
75166;BME280;63747;48.042;10.088;2023-08-21T05:57:45;95721.38;;;20.44;54.18
75166;BME280;63747;48.042;10.088;2023-08-21T06:00:46;95725.16;;;20.61;54.00
75166;BME280;63747;48.042;10.088;2023-08-21T06:03:46;95719.81;;;20.73;53.65
75166;BME280;63747;48.042;10.088;2023-08-21T06:06:47;95711.31;;;20.94;53.47
75166;BME280;63747;48.042;10.088;2023-08-21T06:09:47;95723.22;;;21.23;53.62
75166;BME280;63747;48.042;10.088;2023-08-21T06:12:48;95718.63;;;21.54;52.95
75166;BME280;63747;48.042;10.088;2023-08-21T06:15:49;95725.69;;;21.85;52.75
75166;BME280;63747;48.042;10.088;2023-08-21T06:18:49;95736.38;;;22.15;52.22
75166;BME280;63747;48.042;10.088;2023-08-21T06:21:50;95727.97;;;22.23;52.75
75166;BME280;63747;48.042;10.088;2023-08-21T06:24:50;95733.00;;;22.19;52.92
75166;BME280;63747;48.042;10.088;2023-08-21T06:27:51;95730.19;;;22.03;53.18
75166;BME280;63747;48.042;10.088;2023-08-21T06:30:55;95741.03;;;21.84;52.92
75166;BME280;63747;48.042;10.088;2023-08-21T06:33:57;95742.97;;;21.95;53.47
75166;BME280;63747;48.042;10.088;2023-08-21T06:36:58;95746.41;;;22.49;52.55
75166;BME280;63747;48.042;10.088;2023-08-21T06:39:58;95750.66;;;22.92;52.50
75166;BME280;63747;48.042;10.088;2023-08-21T06:42:58;95749.06;;;23.20;52.15
75166;BME280;63747;48.042;10.088;2023-08-21T06:45:59;95742.75;;;23.43;52.30
75166;BME280;63747;48.042;10.088;2023-08-21T06:49:00;95746.44;;;23.65;52.53
75166;BME280;63747;48.042;10.088;2023-08-21T06:52:01;95746.31;;;23.72;52.14
75166;BME280;63747;48.042;10.088;2023-08-21T06:55:02;95750.56;;;23.84;52.04
75166;BME280;63747;48.042;10.088;2023-08-21T06:58:03;95747.38;;;23.99;52.05
75166;BME280;63747;48.042;10.088;2023-08-21T07:01:03;95746.53;;;24.15;52.28
75166;BME280;63747;48.042;10.088;2023-08-21T07:04:04;95746.63;;;24.37;52.44
75166;BME280;63747;48.042;10.088;2023-08-21T07:07:05;95745.06;;;24.41;52.62
75166;BME280;63747;48.042;10.088;2023-08-21T07:10:05;95748.69;;;24.64;52.48
75166;BME280;63747;48.042;10.088;2023-08-21T07:13:06;95745.66;;;24.99;52.25
75166;BME280;63747;48.042;10.088;2023-08-21T07:16:06;95747.19;;;25.34;51.33
75166;BME280;63747;48.042;10.088;2023-08-21T07:19:08;95742.00;;;25.54;51.29
75166;BME280;63747;48.042;10.088;2023-08-21T07:22:09;95754.31;;;25.62;51.03
75166;BME280;63747;48.042;10.088;2023-08-21T07:25:10;95748.59;;;25.85;50.88
75166;BME280;63747;48.042;10.088;2023-08-21T07:28:10;95753.66;;;25.76;51.14
75166;BME280;63747;48.042;10.088;2023-08-21T07:31:11;95757.31;;;25.87;51.32
75166;BME280;63747;48.042;10.088;2023-08-21T07:34:11;95753.03;;;25.91;51.21
75166;BME280;63747;48.042;10.088;2023-08-21T07:37:12;95753.16;;;26.06;50.90
75166;BME280;63747;48.042;10.088;2023-08-21T07:40:12;95752.56;;;26.31;51.08
75166;BME280;63747;48.042;10.088;2023-08-21T07:43:13;95751.53;;;26.38;51.14
75166;BME280;63747;48.042;10.088;2023-08-21T07:46:13;95748.81;;;26.70;50.62
75166;BME280;63747;48.042;10.088;2023-08-21T07:49:16;95753.56;;;26.95;50.49
75166;BME280;63747;48.042;10.088;2023-08-21T07:52:16;95755.91;;;27.23;49.84
75166;BME280;63747;48.042;10.088;2023-08-21T07:55:17;95756.00;;;27.44;49.48
75166;BME280;63747;48.042;10.088;2023-08-21T07:58:17;95762.09;;;27.61;49.51
75166;BME280;63747;48.042;10.088;2023-08-21T08:01:18;95762.16;;;27.86;48.76
75166;BME280;63747;48.042;10.088;2023-08-21T08:04:20;95758.09;;;27.94;48.96
75166;BME280;63747;48.042;10.088;2023-08-21T08:07:21;95756.66;;;27.61;49.52
75166;BME280;63747;48.042;10.088;2023-08-21T08:10:22;95759.44;;;27.86;49.28
75166;BME280;63747;48.042;10.088;2023-08-21T08:13:22;95760.25;;;27.87;49.26
75166;BME280;63747;48.042;10.088;2023-08-21T08:16:23;95756.16;;;27.79;49.19
75166;BME280;63747;48.042;10.088;2023-08-21T08:19:23;95761.34;;;27.86;49.03
75166;BME280;63747;48.042;10.088;2023-08-21T08:22:24;95754.25;;;27.85;49.45
75166;BME280;63747;48.042;10.088;2023-08-21T08:25:24;95753.97;;;27.81;49.10
75166;BME280;63747;48.042;10.088;2023-08-21T08:28:25;95759.97;;;27.83;49.02
75166;BME280;63747;48.042;10.088;2023-08-21T08:31:25;95755.91;;;27.86;49.24
75166;BME280;63747;48.042;10.088;2023-08-21T08:34:27;95754.03;;;28.07;48.70
75166;BME280;63747;48.042;10.088;2023-08-21T08:37:27;95766.00;;;28.16;48.62
75166;BME280;63747;48.042;10.088;2023-08-21T08:40:28;95767.16;;;28.20;47.51
75166;BME280;63747;48.042;10.088;2023-08-21T08:43:28;95762.25;;;28.22;47.83
75166;BME280;63747;48.042;10.088;2023-08-21T08:46:31;95759.50;;;28.42;47.36
75166;BME280;63747;48.042;10.088;2023-08-21T08:49:31;95764.16;;;28.57;47.18
75166;BME280;63747;48.042;10.088;2023-08-21T08:52:36;95762.53;;;28.77;47.31
75166;BME280;63747;48.042;10.088;2023-08-21T08:55:36;95753.38;;;29.27;46.85
75166;BME280;63747;48.042;10.088;2023-08-21T08:58:37;95759.53;;;29.63;46.29
75166;BME280;63747;48.042;10.088;2023-08-21T09:01:37;95758.75;;;29.52;46.11
75166;BME280;63747;48.042;10.088;2023-08-21T09:04:38;95760.47;;;29.43;46.35
75166;BME280;63747;48.042;10.088;2023-08-21T09:07:39;95757.00;;;29.77;46.13
75166;BME280;63747;48.042;10.088;2023-08-21T09:10:40;95761.72;;;30.16;46.04
75166;BME280;63747;48.042;10.088;2023-08-21T09:13:41;95766.56;;;29.79;45.38
75166;BME280;63747;48.042;10.088;2023-08-21T09:16:57;95759.47;;;29.78;45.21
75166;BME280;63747;48.042;10.088;2023-08-21T09:20:05;95757.56;;;29.74;45.33
75166;BME280;63747;48.042;10.088;2023-08-21T09:23:05;95755.69;;;30.19;45.62
75166;BME280;63747;48.042;10.088;2023-08-21T09:26:06;95755.50;;;30.49;44.96
75166;BME280;63747;48.042;10.088;2023-08-21T09:29:07;95757.19;;;30.35;44.30
75166;BME280;63747;48.042;10.088;2023-08-21T09:32:08;95756.63;;;30.43;44.53
75166;BME280;63747;48.042;10.088;2023-08-21T09:35:13;95755.69;;;30.58;44.40
75166;BME280;63747;48.042;10.088;2023-08-21T09:38:14;95748.44;;;31.01;44.08
75166;BME280;63747;48.042;10.088;2023-08-21T09:41:14;95752.97;;;31.35;43.32
75166;BME280;63747;48.042;10.088;2023-08-21T09:44:19;95751.59;;;31.13;43.76
75166;BME280;63747;48.042;10.088;2023-08-21T09:47:19;95749.78;;;31.28;44.02
75166;BME280;63747;48.042;10.088;2023-08-21T09:50:20;95749.91;;;31.65;43.33
75166;BME280;63747;48.042;10.088;2023-08-21T09:53:22;95748.22;;;31.46;42.97
75166;BME280;63747;48.042;10.088;2023-08-21T09:56:23;95744.09;;;31.24;42.28
75166;BME280;63747;48.042;10.088;2023-08-21T09:59:24;95745.75;;;30.96;43.17
75166;BME280;63747;48.042;10.088;2023-08-21T10:02:25;95740.78;;;30.69;43.52
75166;BME280;63747;48.042;10.088;2023-08-21T10:05:26;95746.00;;;31.00;42.89
75166;BME280;63747;48.042;10.088;2023-08-21T10:08:27;95734.09;;;31.09;42.90
75166;BME280;63747;48.042;10.088;2023-08-21T10:11:28;95744.91;;;31.25;42.64
75166;BME280;63747;48.042;10.088;2023-08-21T10:14:29;95737.28;;;31.46;42.33
75166;BME280;63747;48.042;10.088;2023-08-21T10:17:30;95735.34;;;31.46;42.11
75166;BME280;63747;48.042;10.088;2023-08-21T10:20:31;95730.19;;;31.39;42.15
75166;BME280;63747;48.042;10.088;2023-08-21T10:23:31;95739.13;;;31.50;41.63
75166;BME280;63747;48.042;10.088;2023-08-21T10:26:33;95730.50;;;31.38;41.04
75166;BME280;63747;48.042;10.088;2023-08-21T10:29:38;95733.75;;;31.83;41.21
75166;BME280;63747;48.042;10.088;2023-08-21T10:32:44;95726.81;;;31.48;40.20
75166;BME280;63747;48.042;10.088;2023-08-21T10:35:44;95731.78;;;31.46;40.48
75166;BME280;63747;48.042;10.088;2023-08-21T10:39:00;95729.88;;;31.84;40.55
75166;BME280;63747;48.042;10.088;2023-08-21T10:42:08;95730.75;;;32.03;39.90
75166;BME280;63747;48.042;10.088;2023-08-21T10:45:14;95736.41;;;31.88;39.75
75166;BME280;63747;48.042;10.088;2023-08-21T10:48:15;95735.28;;;32.13;39.92
75166;BME280;63747;48.042;10.088;2023-08-21T10:51:15;95733.97;;;32.43;40.07
75166;BME280;63747;48.042;10.088;2023-08-21T10:54:17;95730.09;;;32.76;40.06
75166;BME280;63747;48.042;10.088;2023-08-21T10:57:17;95735.94;;;32.89;39.73
75166;BME280;63747;48.042;10.088;2023-08-21T11:00:18;95730.59;;;32.32;39.46
75166;BME280;63747;48.042;10.088;2023-08-21T11:03:20;95729.81;;;32.78;39.42
75166;BME280;63747;48.042;10.088;2023-08-21T11:06:20;95731.91;;;33.00;38.04
75166;BME280;63747;48.042;10.088;2023-08-21T11:09:21;95729.53;;;32.79;37.87
75166;BME280;63747;48.042;10.088;2023-08-21T11:12:22;95717.25;;;32.58;37.39
75166;BME280;63747;48.042;10.088;2023-08-21T11:15:27;95729.41;;;32.85;37.84
75166;BME280;63747;48.042;10.088;2023-08-21T11:18:35;95722.75;;;33.32;37.59
75166;BME280;63747;48.042;10.088;2023-08-21T11:21:35;95732.06;;;32.90;35.75
75166;BME280;63747;48.042;10.088;2023-08-21T11:24:39;95731.47;;;32.93;36.34
75166;BME280;63747;48.042;10.088;2023-08-21T11:27:40;95732.13;;;33.31;36.85
75166;BME280;63747;48.042;10.088;2023-08-21T11:30:42;95728.47;;;33.49;36.30
75166;BME280;63747;48.042;10.088;2023-08-21T11:33:49;95726.03;;;33.62;36.63
75166;BME280;63747;48.042;10.088;2023-08-21T11:36:49;95730.28;;;33.26;35.86
75166;BME280;63747;48.042;10.088;2023-08-21T11:39:51;95720.31;;;33.58;35.74
75166;BME280;63747;48.042;10.088;2023-08-21T11:42:52;95719.19;;;33.31;35.49
75166;BME280;63747;48.042;10.088;2023-08-21T11:45:53;95727.03;;;33.24;36.26
75166;BME280;63747;48.042;10.088;2023-08-21T11:48:54;95711.22;;;33.71;35.58
75166;BME280;63747;48.042;10.088;2023-08-21T11:51:54;95713.56;;;33.78;36.14
75166;BME280;63747;48.042;10.088;2023-08-21T11:54:55;95712.91;;;34.08;36.10
75166;BME280;63747;48.042;10.088;2023-08-21T11:57:56;95708.63;;;34.38;36.30
75166;BME280;63747;48.042;10.088;2023-08-21T12:01:03;95707.31;;;34.67;35.69
75166;BME280;63747;48.042;10.088;2023-08-21T12:04:13;95695.50;;;34.66;35.71
75166;BME280;63747;48.042;10.088;2023-08-21T12:07:14;95696.88;;;34.78;36.17
75166;BME280;63747;48.042;10.088;2023-08-21T12:10:21;95694.38;;;34.67;35.67
75166;BME280;63747;48.042;10.088;2023-08-21T12:13:22;95697.41;;;34.88;36.05
75166;BME280;63747;48.042;10.088;2023-08-21T12:16:23;95692.00;;;35.06;35.88
75166;BME280;63747;48.042;10.088;2023-08-21T12:19:23;95694.97;;;35.18;35.66
75166;BME280;63747;48.042;10.088;2023-08-21T12:22:24;95686.28;;;34.40;34.86
75166;BME280;63747;48.042;10.088;2023-08-21T12:25:24;95683.88;;;34.47;35.33
75166;BME280;63747;48.042;10.088;2023-08-21T12:28:25;95682.06;;;34.20;34.97
75166;BME280;63747;48.042;10.088;2023-08-21T12:31:26;95679.72;;;34.50;35.14
75166;BME280;63747;48.042;10.088;2023-08-21T12:34:26;95679.59;;;34.86;35.31
75166;BME280;63747;48.042;10.088;2023-08-21T12:37:27;95676.72;;;35.00;34.99
75166;BME280;63747;48.042;10.088;2023-08-21T12:40:27;95666.75;;;35.21;35.02
75166;BME280;63747;48.042;10.088;2023-08-21T12:43:28;95668.88;;;35.24;34.86
75166;BME280;63747;48.042;10.088;2023-08-21T12:46:29;95664.88;;;35.30;31.89
75166;BME280;63747;48.042;10.088;2023-08-21T12:49:29;95665.56;;;34.43;32.27
75166;BME280;63747;48.042;10.088;2023-08-21T12:52:30;95660.78;;;34.34;34.79
75166;BME280;63747;48.042;10.088;2023-08-21T12:55:30;95652.72;;;34.91;34.20
75166;BME280;63747;48.042;10.088;2023-08-21T12:58:31;95654.25;;;35.15;34.02
75166;BME280;63747;48.042;10.088;2023-08-21T13:01:33;95649.72;;;35.19;34.16
75166;BME280;63747;48.042;10.088;2023-08-21T13:04:34;95652.88;;;35.43;33.97
75166;BME280;63747;48.042;10.088;2023-08-21T13:07:34;95648.22;;;35.70;34.29
75166;BME280;63747;48.042;10.088;2023-08-21T13:10:35;95641.22;;;35.38;34.22
75166;BME280;63747;48.042;10.088;2023-08-21T13:13:36;95641.69;;;35.40;33.83
75166;BME280;63747;48.042;10.088;2023-08-21T13:16:36;95644.19;;;35.10;33.70
75166;BME280;63747;48.042;10.088;2023-08-21T13:19:37;95639.13;;;34.64;33.49
75166;BME280;63747;48.042;10.088;2023-08-21T13:22:44;95636.00;;;34.88;33.09
75166;BME280;63747;48.042;10.088;2023-08-21T13:25:45;95632.28;;;34.61;32.31
75166;BME280;63747;48.042;10.088;2023-08-21T13:28:46;95628.09;;;34.64;33.27
75166;BME280;63747;48.042;10.088;2023-08-21T13:31:46;95623.44;;;35.04;32.66
75166;BME280;63747;48.042;10.088;2023-08-21T13:34:47;95617.38;;;34.93;31.42
75166;BME280;63747;48.042;10.088;2023-08-21T13:37:47;95621.81;;;34.41;32.64
75166;BME280;63747;48.042;10.088;2023-08-21T13:40:48;95619.06;;;34.72;31.63
75166;BME280;63747;48.042;10.088;2023-08-21T13:43:48;95609.81;;;34.68;33.09
75166;BME280;63747;48.042;10.088;2023-08-21T13:46:49;95607.47;;;34.84;32.52
75166;BME280;63747;48.042;10.088;2023-08-21T13:49:49;95604.50;;;35.20;33.06
75166;BME280;63747;48.042;10.088;2023-08-21T13:52:50;95611.00;;;35.24;32.74
75166;BME280;63747;48.042;10.088;2023-08-21T13:55:51;95606.34;;;35.42;33.19
75166;BME280;63747;48.042;10.088;2023-08-21T13:58:51;95605.22;;;35.69;33.09
75166;BME280;63747;48.042;10.088;2023-08-21T14:01:52;95605.06;;;35.74;33.08
75166;BME280;63747;48.042;10.088;2023-08-21T14:04:52;95600.84;;;35.77;33.13
75166;BME280;63747;48.042;10.088;2023-08-21T14:07:53;95601.19;;;35.84;33.09
75166;BME280;63747;48.042;10.088;2023-08-21T14:10:53;95601.34;;;35.87;32.92
75166;BME280;63747;48.042;10.088;2023-08-21T14:13:54;95594.69;;;35.54;32.14
75166;BME280;63747;48.042;10.088;2023-08-21T14:16:54;95597.75;;;34.86;30.60
75166;BME280;63747;48.042;10.088;2023-08-21T14:19:55;95594.88;;;34.91;32.29
75166;BME280;63747;48.042;10.088;2023-08-21T14:22:55;95583.59;;;34.79;31.62
75166;BME280;63747;48.042;10.088;2023-08-21T14:25:56;95589.91;;;34.71;31.63
75166;BME280;63747;48.042;10.088;2023-08-21T14:28:56;95586.03;;;34.41;32.02
75166;BME280;63747;48.042;10.088;2023-08-21T14:32:00;95587.81;;;34.77;32.29
75166;BME280;63747;48.042;10.088;2023-08-21T14:35:01;95587.09;;;34.93;32.30
75166;BME280;63747;48.042;10.088;2023-08-21T14:38:01;95589.78;;;35.33;32.36
75166;BME280;63747;48.042;10.088;2023-08-21T14:41:02;95584.78;;;35.44;31.43
75166;BME280;63747;48.042;10.088;2023-08-21T14:44:03;95575.31;;;35.19;32.26
75166;BME280;63747;48.042;10.088;2023-08-21T14:47:03;95582.25;;;34.68;32.58
75166;BME280;63747;48.042;10.088;2023-08-21T14:50:05;95586.69;;;34.78;32.84
75166;BME280;63747;48.042;10.088;2023-08-21T14:53:05;95576.00;;;34.36;32.24
75166;BME280;63747;48.042;10.088;2023-08-21T14:56:06;95573.16;;;34.50;33.05
75166;BME280;63747;48.042;10.088;2023-08-21T14:59:06;95563.97;;;34.63;32.85
75166;BME280;63747;48.042;10.088;2023-08-21T15:02:10;95569.03;;;34.39;33.36
75166;BME280;63747;48.042;10.088;2023-08-21T15:05:11;95565.59;;;34.02;33.54
75166;BME280;63747;48.042;10.088;2023-08-21T15:08:15;95562.38;;;34.09;33.89
75166;BME280;63747;48.042;10.088;2023-08-21T15:11:15;95560.00;;;34.16;33.70
75166;BME280;63747;48.042;10.088;2023-08-21T15:14:16;95558.19;;;34.11;34.10
75166;BME280;63747;48.042;10.088;2023-08-21T15:17:17;95556.75;;;33.92;34.34
75166;BME280;63747;48.042;10.088;2023-08-21T15:20:18;95558.16;;;33.67;34.61
75166;BME280;63747;48.042;10.088;2023-08-21T15:23:18;95553.16;;;33.46;34.59
75166;BME280;63747;48.042;10.088;2023-08-21T15:26:19;95546.38;;;32.94;34.18
75166;BME280;63747;48.042;10.088;2023-08-21T15:29:19;95541.69;;;32.53;34.89
75166;BME280;63747;48.042;10.088;2023-08-21T15:32:20;95547.28;;;32.48;34.69
75166;BME280;63747;48.042;10.088;2023-08-21T15:35:20;95544.94;;;32.55;34.30
75166;BME280;63747;48.042;10.088;2023-08-21T15:38:21;95545.13;;;32.72;35.09
75166;BME280;63747;48.042;10.088;2023-08-21T15:41:21;95542.50;;;32.95;34.42
75166;BME280;63747;48.042;10.088;2023-08-21T15:44:22;95538.59;;;33.10;34.47
75166;BME280;63747;48.042;10.088;2023-08-21T15:47:22;95536.03;;;33.13;34.82
75166;BME280;63747;48.042;10.088;2023-08-21T15:50:23;95537.81;;;33.31;34.52
75166;BME280;63747;48.042;10.088;2023-08-21T15:53:23;95538.34;;;33.20;34.88
75166;BME280;63747;48.042;10.088;2023-08-21T15:56:24;95533.53;;;33.03;33.61
75166;BME280;63747;48.042;10.088;2023-08-21T15:59:24;95527.44;;;32.51;35.09